Terminal Aerodrome Forecast
Issued by NWS

Home | Current Version | Previous Version | Text Only | Print | Product List | Glossary On
Versions: 1 2 3 4 5 6 7 8 9 10 11 12 13 14 15 16 17 18 19
000
FTUS41 KOKX 011400 AAA
TAFSWF
TAF AMD
KSWF 011440Z 0115/0218 23005KT P6SM FEW050 SCT250
     FM011700 20008KT P6SM SCT040 SCT150 BKN250
     FM020000 VRB05KT P6SM SCT040 BKN150
     FM020600 VRB05KT P6SM SCT050 BKN100
     FM021300 10005KT P6SM BKN050
      AMD NOT SKED=

USA.gov is the U.S. government's official web portal to all federal, state and local government web resources and services.